VOE7YM LEVC-LEBB
Flight info
| Callsign | VOE7YM |
|---|---|
| Flight time | 0h 55m |
| Altitude | 32000 |
| Route | CENTA N733 CJN L150 RBO N867 DGO |
| Aircraft | A319/M-SDE3FGHIRWY/LB1 |
Departure
| Time | 2026-05-08 21:19 |
|---|---|
| Airport | Valencia Airport (LEVC) |
Arrival
| Time | 2026-05-08 22:15 |
|---|---|
| Airport | Bilbao Airport (LEBB) |
| Time | Latitude | Longitude | Altitude | Speed | Heading |
|---|---|---|---|---|---|
| 2026-05-08 20:59 | 39.49173 | -0.47628 | 209 ft | 0 kts | 67° |
| 2026-05-08 21:11 | 39.49170 | -0.47637 | 213 ft | 4 kts | 70° |
| 2026-05-08 21:12 | 39.49165 | -0.47670 | 209 ft | 4 kts | 98° |
| 2026-05-08 21:12 | 39.49175 | -0.47698 | 213 ft | 4 kts | 162° |
| 2026-05-08 21:12 | 39.49188 | -0.47699 | 214 ft | 0 kts | 206° |
| 2026-05-08 21:14 | 39.49186 | -0.47701 | 215 ft | 2 kts | 206° |
| 2026-05-08 21:14 | 39.49165 | -0.47714 | 209 ft | 5 kts | 206° |
| 2026-05-08 21:14 | 39.49122 | -0.47741 | 213 ft | 8 kts | 205° |
| 2026-05-08 21:15 | 39.49060 | -0.47780 | 209 ft | 12 kts | 208° |
| 2026-05-08 21:15 | 39.49032 | -0.47883 | 209 ft | 14 kts | 277° |
| 2026-05-08 21:15 | 39.49075 | -0.48010 | 215 ft | 17 kts | 296° |
| 2026-05-08 21:15 | 39.49130 | -0.48159 | 212 ft | 20 kts | 295° |
| 2026-05-08 21:16 | 39.49194 | -0.48327 | 214 ft | 22 kts | 296° |
| 2026-05-08 21:16 | 39.49263 | -0.48512 | 212 ft | 24 kts | 295° |
| 2026-05-08 21:16 | 39.49339 | -0.48707 | 209 ft | 25 kts | 298° |
| 2026-05-08 21:16 | 39.49423 | -0.48918 | 210 ft | 27 kts | 296° |
| 2026-05-08 21:17 | 39.49508 | -0.49144 | 209 ft | 29 kts | 296° |
| 2026-05-08 21:17 | 39.49596 | -0.49384 | 215 ft | 30 kts | 295° |
| 2026-05-08 21:17 | 39.49691 | -0.49634 | 212 ft | 32 kts | 297° |
| 2026-05-08 21:17 | 39.49784 | -0.49871 | 215 ft | 17 kts | 297° |
| 2026-05-08 21:18 | 39.49759 | -0.49984 | 210 ft | 15 kts | 211° |
| 2026-05-08 21:18 | 39.49671 | -0.50033 | 214 ft | 13 kts | 195° |
| 2026-05-08 21:18 | 39.49632 | -0.49998 | 212 ft | 1 kts | 119° |
| 2026-05-08 21:18 | 39.49626 | -0.49985 | 212 ft | 3 kts | 119° |
| 2026-05-08 21:19 | 39.49568 | -0.49840 | 211 ft | 53 kts | 117° |
| 2026-05-08 21:19 | 39.49287 | -0.49091 | 214 ft | 126 kts | 115° |
| 2026-05-08 21:19 | 39.48829 | -0.47883 | 362 ft | 165 kts | 115° |
| 2026-05-08 21:19 | 39.48293 | -0.46538 | 1114 ft | 165 kts | 116° |
| 2026-05-08 21:20 | 39.47763 | -0.45252 | 1922 ft | 164 kts | 117° |
| 2026-05-08 21:20 | 39.47172 | -0.43909 | 2513 ft | 182 kts | 123° |
| 2026-05-08 21:20 | 39.46388 | -0.42497 | 2926 ft | 205 kts | 126° |
| 2026-05-08 21:20 | 39.45464 | -0.40975 | 3345 ft | 226 kts | 127° |
| 2026-05-08 21:21 | 39.44428 | -0.39297 | 3840 ft | 250 kts | 128° |
| 2026-05-08 21:21 | 39.43320 | -0.37496 | 4676 ft | 260 kts | 128° |
| 2026-05-08 21:21 | 39.42193 | -0.35647 | 5626 ft | 265 kts | 128° |
| 2026-05-08 21:21 | 39.41048 | -0.33752 | 6565 ft | 270 kts | 129° |
| 2026-05-08 21:22 | 39.39721 | -0.32019 | 7408 ft | 275 kts | 149° |
| 2026-05-08 21:22 | 39.37924 | -0.31208 | 8273 ft | 277 kts | 176° |
| 2026-05-08 21:22 | 39.36029 | -0.31582 | 9178 ft | 279 kts | 204° |
| 2026-05-08 21:22 | 39.34478 | -0.33075 | 10103 ft | 282 kts | 230° |
| 2026-05-08 21:23 | 39.33295 | -0.35121 | 10821 ft | 292 kts | 236° |
| 2026-05-08 21:23 | 39.32216 | -0.37468 | 11127 ft | 316 kts | 242° |
| 2026-05-08 21:23 | 39.31309 | -0.40167 | 11378 ft | 339 kts | 249° |
| 2026-05-08 21:23 | 39.30660 | -0.43139 | 11978 ft | 348 kts | 257° |
| 2026-05-08 21:24 | 39.30303 | -0.46252 | 12780 ft | 352 kts | 263° |
| 2026-05-08 21:24 | 39.30252 | -0.49423 | 13624 ft | 355 kts | 270° |
| 2026-05-08 21:24 | 39.30532 | -0.52597 | 14373 ft | 359 kts | 277° |
| 2026-05-08 21:24 | 39.31157 | -0.55744 | 15073 ft | 365 kts | 284° |
| 2026-05-08 21:25 | 39.32126 | -0.58792 | 15777 ft | 371 kts | 292° |
| 2026-05-08 21:25 | 39.33441 | -0.61691 | 16443 ft | 378 kts | 300° |
| 2026-05-08 21:25 | 39.35120 | -0.64346 | 17112 ft | 387 kts | 310° |
| 2026-05-08 21:25 | 39.37220 | -0.66597 | 17776 ft | 396 kts | 318° |
| 2026-05-08 21:26 | 39.39450 | -0.68709 | 18426 ft | 399 kts | 318° |
| 2026-05-08 21:26 | 39.41697 | -0.70836 | 18993 ft | 402 kts | 318° |
| 2026-05-08 21:26 | 39.43933 | -0.72960 | 19538 ft | 406 kts | 318° |
| 2026-05-08 21:26 | 39.46211 | -0.75128 | 20084 ft | 409 kts | 317° |
| 2026-05-08 21:27 | 39.48511 | -0.77324 | 20609 ft | 412 kts | 317° |
| 2026-05-08 21:27 | 39.50824 | -0.79537 | 21123 ft | 415 kts | 317° |
| 2026-05-08 21:27 | 39.53154 | -0.81768 | 21642 ft | 419 kts | 317° |
| 2026-05-08 21:27 | 39.55502 | -0.84018 | 22121 ft | 421 kts | 317° |
| 2026-05-08 21:28 | 39.57862 | -0.86278 | 22593 ft | 424 kts | 317° |
| 2026-05-08 21:28 | 39.60244 | -0.88559 | 23074 ft | 427 kts | 317° |
| 2026-05-08 21:28 | 39.62645 | -0.90864 | 23536 ft | 430 kts | 317° |
| 2026-05-08 21:28 | 39.65054 | -0.93180 | 23925 ft | 433 kts | 316° |
| 2026-05-08 21:29 | 39.67485 | -0.95519 | 24314 ft | 435 kts | 316° |
| 2026-05-08 21:29 | 39.69760 | -0.98081 | 24707 ft | 430 kts | 307° |
| 2026-05-08 21:29 | 39.71666 | -1.01030 | 25098 ft | 424 kts | 298° |
| 2026-05-08 21:29 | 39.73194 | -1.04268 | 25495 ft | 420 kts | 292° |
| 2026-05-08 21:30 | 39.74628 | -1.07583 | 25882 ft | 422 kts | 292° |
| 2026-05-08 21:30 | 39.76070 | -1.10912 | 26288 ft | 424 kts | 292° |
| 2026-05-08 21:30 | 39.77525 | -1.14257 | 26677 ft | 425 kts | 292° |
| 2026-05-08 21:30 | 39.78987 | -1.17613 | 27041 ft | 427 kts | 292° |
| 2026-05-08 21:31 | 39.80453 | -1.20979 | 27435 ft | 428 kts | 292° |
| 2026-05-08 21:31 | 39.81921 | -1.24357 | 27821 ft | 430 kts | 292° |
| 2026-05-08 21:31 | 39.83391 | -1.27745 | 28182 ft | 431 kts | 292° |
| 2026-05-08 21:31 | 39.84865 | -1.31144 | 28515 ft | 432 kts | 292° |
| 2026-05-08 21:32 | 39.86345 | -1.34557 | 28856 ft | 434 kts | 292° |
| 2026-05-08 21:32 | 39.87826 | -1.37985 | 29220 ft | 434 kts | 291° |
| 2026-05-08 21:32 | 39.89302 | -1.41408 | 29724 ft | 432 kts | 291° |
| 2026-05-08 21:32 | 39.90770 | -1.44809 | 30216 ft | 430 kts | 291° |
| 2026-05-08 21:33 | 39.92230 | -1.48197 | 30651 ft | 427 kts | 291° |
| 2026-05-08 21:33 | 39.93679 | -1.51564 | 31086 ft | 425 kts | 290° |
| 2026-05-08 21:33 | 39.95116 | -1.54916 | 31500 ft | 423 kts | 290° |
| 2026-05-08 21:33 | 39.96548 | -1.58257 | 31893 ft | 422 kts | 290° |
| 2026-05-08 21:34 | 39.97978 | -1.61592 | 32008 ft | 420 kts | 289° |
| 2026-05-08 21:34 | 40.00799 | -1.68175 | 32008 ft | 418 kts | 289° |
| 2026-05-08 21:35 | 40.03623 | -1.74794 | 32013 ft | 417 kts | 289° |
| 2026-05-08 21:35 | 40.06440 | -1.81418 | 32007 ft | 418 kts | 289° |
| 2026-05-08 21:36 | 40.09258 | -1.88055 | 31995 ft | 418 kts | 289° |
| 2026-05-08 21:36 | 40.12076 | -1.94692 | 31994 ft | 418 kts | 289° |
| 2026-05-08 21:37 | 40.14892 | -2.01342 | 31990 ft | 418 kts | 289° |
| 2026-05-08 21:37 | 40.17713 | -2.07982 | 31983 ft | 418 kts | 289° |
| 2026-05-08 21:38 | 40.20543 | -2.14620 | 31980 ft | 418 kts | 289° |
| 2026-05-08 21:38 | 40.23366 | -2.21277 | 31974 ft | 418 kts | 288° |
| 2026-05-08 21:39 | 40.26162 | -2.27957 | 31972 ft | 418 kts | 288° |
| 2026-05-08 21:39 | 40.28954 | -2.34640 | 31965 ft | 419 kts | 288° |
| 2026-05-08 21:40 | 40.31751 | -2.41336 | 31972 ft | 419 kts | 288° |
| 2026-05-08 21:40 | 40.34535 | -2.48029 | 31970 ft | 418 kts | 288° |
| 2026-05-08 21:41 | 40.37465 | -2.54652 | 31967 ft | 429 kts | 295° |
| 2026-05-08 21:41 | 40.39394 | -2.57639 | 31973 ft | 438 kts | 301° |
| 2026-05-08 21:41 | 40.43510 | -2.63554 | 31977 ft | 439 kts | 301° |
| 2026-05-08 21:42 | 40.47608 | -2.69470 | 31978 ft | 438 kts | 301° |
| 2026-05-08 21:42 | 40.51703 | -2.75397 | 31981 ft | 437 kts | 301° |
| 2026-05-08 21:43 | 40.55778 | -2.81318 | 31980 ft | 437 kts | 301° |
| 2026-05-08 21:43 | 40.59846 | -2.87244 | 31980 ft | 437 kts | 300° |
| 2026-05-08 21:44 | 40.63918 | -2.93171 | 31982 ft | 436 kts | 300° |
| 2026-05-08 21:44 | 40.67984 | -2.99099 | 31978 ft | 436 kts | 300° |
| 2026-05-08 21:45 | 40.72039 | -3.05027 | 31978 ft | 436 kts | 300° |
| 2026-05-08 21:45 | 40.76091 | -3.10973 | 31964 ft | 435 kts | 300° |
| 2026-05-08 21:46 | 40.79475 | -3.15954 | 31971 ft | 435 kts | 300° |
| 2026-05-08 21:46 | 40.81695 | -3.18760 | 31962 ft | 451 kts | 310° |
| 2026-05-08 21:46 | 40.84364 | -3.20988 | 31972 ft | 470 kts | 323° |
| 2026-05-08 21:47 | 40.87491 | -3.22502 | 31971 ft | 490 kts | 336° |
| 2026-05-08 21:47 | 40.90978 | -3.23098 | 31965 ft | 509 kts | 351° |
| 2026-05-08 21:47 | 40.94503 | -3.22664 | 31964 ft | 522 kts | 2° |
| 2026-05-08 21:47 | 40.98087 | -3.21848 | 31964 ft | 523 kts | 2° |
| 2026-05-08 21:48 | 41.05255 | -3.20217 | 31960 ft | 523 kts | 2° |
| 2026-05-08 21:48 | 41.12424 | -3.18599 | 31968 ft | 522 kts | 2° |
| 2026-05-08 21:49 | 41.19592 | -3.16989 | 31972 ft | 522 kts | 2° |
| 2026-05-08 21:49 | 41.26757 | -3.15379 | 31974 ft | 522 kts | 2° |
| 2026-05-08 21:50 | 41.33916 | -3.13758 | 31978 ft | 522 kts | 2° |
| 2026-05-08 21:50 | 41.41080 | -3.12124 | 31984 ft | 522 kts | 2° |
| 2026-05-08 21:51 | 41.48243 | -3.10503 | 31985 ft | 521 kts | 2° |
| 2026-05-08 21:51 | 41.55389 | -3.08882 | 31991 ft | 521 kts | 2° |
| 2026-05-08 21:52 | 41.62528 | -3.07265 | 31991 ft | 520 kts | 2° |
| 2026-05-08 21:52 | 41.69646 | -3.05636 | 31990 ft | 519 kts | 2° |
| 2026-05-08 21:53 | 41.73192 | -3.04822 | 31733 ft | 513 kts | 3° |
| 2026-05-08 21:53 | 41.76699 | -3.04015 | 31286 ft | 508 kts | 3° |
| 2026-05-08 21:53 | 41.80173 | -3.03214 | 30844 ft | 505 kts | 4° |
| 2026-05-08 21:53 | 41.83632 | -3.02419 | 30412 ft | 503 kts | 4° |
| 2026-05-08 21:54 | 41.87073 | -3.01630 | 29964 ft | 502 kts | 4° |
| 2026-05-08 21:54 | 41.90515 | -3.00842 | 29410 ft | 501 kts | 4° |
| 2026-05-08 21:54 | 41.93949 | -3.00051 | 28883 ft | 501 kts | 5° |
| 2026-05-08 21:54 | 41.97379 | -2.99258 | 28364 ft | 500 kts | 5° |
| 2026-05-08 21:55 | 42.00799 | -2.98466 | 27853 ft | 496 kts | 5° |
| 2026-05-08 21:55 | 42.04186 | -2.97679 | 27353 ft | 492 kts | 5° |
| 2026-05-08 21:55 | 42.07547 | -2.96895 | 26849 ft | 488 kts | 5° |
| 2026-05-08 21:56 | 42.14138 | -2.95354 | 25901 ft | 480 kts | 6° |
| 2026-05-08 21:56 | 42.17412 | -2.94589 | 25434 ft | 476 kts | 6° |
| 2026-05-08 21:56 | 42.20671 | -2.93831 | 24968 ft | 474 kts | 6° |
| 2026-05-08 21:56 | 42.23909 | -2.93080 | 24508 ft | 470 kts | 6° |
| 2026-05-08 21:57 | 42.27115 | -2.92336 | 24058 ft | 466 kts | 6° |
| 2026-05-08 21:57 | 42.30305 | -2.91593 | 23618 ft | 463 kts | 6° |
| 2026-05-08 21:57 | 42.33460 | -2.90854 | 23106 ft | 459 kts | 6° |
| 2026-05-08 21:57 | 42.36593 | -2.90120 | 22592 ft | 455 kts | 6° |
| 2026-05-08 21:58 | 42.39693 | -2.89392 | 22087 ft | 451 kts | 6° |
| 2026-05-08 21:58 | 42.42771 | -2.88667 | 21586 ft | 446 kts | 6° |
| 2026-05-08 21:58 | 42.45827 | -2.88061 | 21098 ft | 440 kts | 1° |
| 2026-05-08 21:58 | 42.48862 | -2.87861 | 20618 ft | 435 kts | 359° |
| 2026-05-08 21:59 | 42.51873 | -2.87698 | 20147 ft | 431 kts | 359° |
| 2026-05-08 21:59 | 42.54854 | -2.87539 | 19680 ft | 428 kts | 359° |
| 2026-05-08 21:59 | 42.57818 | -2.87383 | 19205 ft | 424 kts | 359° |
| 2026-05-08 21:59 | 42.60752 | -2.87228 | 18768 ft | 421 kts | 359° |
| 2026-05-08 22:00 | 42.63664 | -2.87070 | 18324 ft | 417 kts | 360° |
| 2026-05-08 22:00 | 42.66549 | -2.86911 | 17852 ft | 412 kts | 1° |
| 2026-05-08 22:00 | 42.69400 | -2.86788 | 17345 ft | 407 kts | 358° |
| 2026-05-08 22:00 | 42.72187 | -2.87171 | 16843 ft | 400 kts | 348° |
| 2026-05-08 22:01 | 42.74847 | -2.88171 | 16320 ft | 394 kts | 336° |
| 2026-05-08 22:01 | 42.77323 | -2.89737 | 15848 ft | 390 kts | 327° |
| 2026-05-08 22:01 | 42.79685 | -2.91561 | 15313 ft | 389 kts | 327° |
| 2026-05-08 22:01 | 42.82040 | -2.93381 | 14680 ft | 390 kts | 327° |
| 2026-05-08 22:02 | 42.84369 | -2.95182 | 14064 ft | 389 kts | 327° |
| 2026-05-08 22:02 | 42.86723 | -2.97006 | 13392 ft | 390 kts | 327° |
| 2026-05-08 22:02 | 42.89077 | -2.98832 | 12755 ft | 387 kts | 327° |
| 2026-05-08 22:02 | 42.91405 | -3.00638 | 12133 ft | 384 kts | 328° |
| 2026-05-08 22:03 | 42.93720 | -3.02430 | 11519 ft | 380 kts | 328° |
| 2026-05-08 22:03 | 42.96003 | -3.04202 | 10906 ft | 377 kts | 328° |
| 2026-05-08 22:03 | 42.98252 | -3.05948 | 10612 ft | 365 kts | 328° |
| 2026-05-08 22:03 | 43.00416 | -3.07625 | 10484 ft | 348 kts | 328° |
| 2026-05-08 22:04 | 43.02478 | -3.09228 | 10366 ft | 335 kts | 327° |
| 2026-05-08 22:04 | 43.04460 | -3.10774 | 10227 ft | 322 kts | 327° |
| 2026-05-08 22:04 | 43.06364 | -3.12264 | 10113 ft | 310 kts | 327° |
| 2026-05-08 22:04 | 43.08212 | -3.13712 | 9876 ft | 303 kts | 327° |
| 2026-05-08 22:05 | 43.10030 | -3.15136 | 9488 ft | 301 kts | 327° |
| 2026-05-08 22:05 | 43.11847 | -3.16560 | 9084 ft | 299 kts | 327° |
| 2026-05-08 22:05 | 43.13645 | -3.17967 | 8644 ft | 298 kts | 327° |
| 2026-05-08 22:05 | 43.15439 | -3.19375 | 8277 ft | 295 kts | 327° |
| 2026-05-08 22:06 | 43.17223 | -3.20773 | 7812 ft | 295 kts | 327° |
| 2026-05-08 22:06 | 43.18992 | -3.22160 | 7496 ft | 291 kts | 327° |
| 2026-05-08 22:06 | 43.20740 | -3.23536 | 7064 ft | 291 kts | 327° |
| 2026-05-08 22:06 | 43.22485 | -3.24911 | 6696 ft | 288 kts | 327° |
| 2026-05-08 22:07 | 43.24213 | -3.26268 | 6318 ft | 285 kts | 328° |
| 2026-05-08 22:07 | 43.26039 | -3.27332 | 5905 ft | 286 kts | 343° |
| 2026-05-08 22:07 | 43.27998 | -3.27751 | 5478 ft | 286 kts | 353° |
| 2026-05-08 22:07 | 43.29953 | -3.27900 | 5264 ft | 276 kts | 358° |
| 2026-05-08 22:08 | 43.31837 | -3.27856 | 5137 ft | 265 kts | 2° |
| 2026-05-08 22:08 | 43.33639 | -3.27641 | 5007 ft | 255 kts | 6° |
| 2026-05-08 22:08 | 43.35371 | -3.27270 | 4879 ft | 250 kts | 10° |
| 2026-05-08 22:08 | 43.37054 | -3.26753 | 4685 ft | 245 kts | 14° |
| 2026-05-08 22:09 | 43.38664 | -3.26095 | 4531 ft | 239 kts | 19° |
| 2026-05-08 22:09 | 43.40120 | -3.25087 | 4383 ft | 233 kts | 44° |
| 2026-05-08 22:09 | 43.40964 | -3.23297 | 4248 ft | 218 kts | 77° |
| 2026-05-08 22:09 | 43.41025 | -3.21310 | 4145 ft | 203 kts | 107° |
| 2026-05-08 22:10 | 43.40495 | -3.19542 | 4079 ft | 199 kts | 120° |
| 2026-05-08 22:10 | 43.39875 | -3.17847 | 3993 ft | 197 kts | 120° |
| 2026-05-08 22:10 | 43.39261 | -3.16161 | 3939 ft | 198 kts | 120° |
| 2026-05-08 22:10 | 43.38647 | -3.14472 | 3731 ft | 197 kts | 120° |
| 2026-05-08 22:11 | 43.38038 | -3.12796 | 3485 ft | 195 kts | 121° |
| 2026-05-08 22:11 | 43.37438 | -3.11145 | 3226 ft | 191 kts | 121° |
| 2026-05-08 22:11 | 43.36852 | -3.09532 | 2970 ft | 187 kts | 121° |
| 2026-05-08 22:11 | 43.36281 | -3.07965 | 2730 ft | 186 kts | 121° |
| 2026-05-08 22:12 | 43.35694 | -3.06353 | 2453 ft | 187 kts | 121° |
| 2026-05-08 22:12 | 43.35118 | -3.04772 | 2196 ft | 184 kts | 120° |
| 2026-05-08 22:12 | 43.34550 | -3.03213 | 1948 ft | 180 kts | 120° |
| 2026-05-08 22:12 | 43.34001 | -3.01707 | 1709 ft | 173 kts | 119° |
| 2026-05-08 22:13 | 43.33477 | -3.00271 | 1466 ft | 164 kts | 119° |
| 2026-05-08 22:13 | 43.32972 | -2.98889 | 1233 ft | 162 kts | 118° |
| 2026-05-08 22:13 | 43.32471 | -2.97520 | 1017 ft | 157 kts | 118° |
| 2026-05-08 22:13 | 43.31987 | -2.96195 | 788 ft | 154 kts | 117° |
| 2026-05-08 22:14 | 43.31509 | -2.94887 | 577 ft | 153 kts | 117° |
| 2026-05-08 22:14 | 43.31049 | -2.93631 | 360 ft | 144 kts | 117° |
| 2026-05-08 22:14 | 43.30608 | -2.92424 | 206 ft | 137 kts | 117° |
| 2026-05-08 22:14 | 43.30198 | -2.91303 | 132 ft | 124 kts | 117° |
| 2026-05-08 22:15 | 43.29933 | -2.90570 | 129 ft | 40 kts | 110° |
| 2026-05-08 22:15 | 43.29924 | -2.90366 | 133 ft | 1 kts | 88° |
| 2026-05-08 22:15 | 43.29924 | -2.90350 | 133 ft | 3 kts | 87° |
| 2026-05-08 22:15 | 43.29926 | -2.90306 | 133 ft | 7 kts | 87° |
| 2026-05-08 22:16 | 43.29944 | -2.90222 | 132 ft | 11 kts | 38° |
| 2026-05-08 22:16 | 43.30012 | -2.90279 | 132 ft | 14 kts | 302° |
| 2026-05-08 22:16 | 43.30071 | -2.90411 | 132 ft | 17 kts | 319° |
| 2026-05-08 22:16 | 43.30117 | -2.90548 | 132 ft | 16 kts | 310° |
| 2026-05-08 22:17 | 43.30216 | -2.90525 | 132 ft | 15 kts | 25° |
| 2026-05-08 22:17 | 43.30285 | -2.90557 | 132 ft | 11 kts | 322° |
| 2026-05-08 22:17 | 43.30350 | -2.90613 | 132 ft | 11 kts | 358° |
| 2026-05-08 22:17 | 43.30413 | -2.90575 | 132 ft | 1 kts | 26° |